createdAt,value
2022-10-11T00:00:53.847Z,3.47
2022-10-11T00:03:22.379Z,3.33
2022-10-11T00:05:50.162Z,3.23
2022-10-11T00:08:18.482Z,3.10
2022-10-11T00:10:57.379Z,3.13
2022-10-11T00:13:25.260Z,3.00
2022-10-11T00:15:53.172Z,3.10
2022-10-11T00:18:21.666Z,3.30
2022-10-11T00:20:49.773Z,3.00
2022-10-11T00:23:18.063Z,3.70
2022-10-11T00:25:47.244Z,3.23
2022-10-11T00:28:15.111Z,3.17
2022-10-11T00:30:43.707Z,3.33
2022-10-11T00:33:11.558Z,2.57
2022-10-11T00:35:41.387Z,3.13
2022-10-11T00:38:09.203Z,2.90
2022-10-11T00:40:37.342Z,3.13
2022-10-11T00:43:16.127Z,3.53
2022-10-11T00:46:21.616Z,3.00
2022-10-11T00:48:51.910Z,3.23
2022-10-11T00:51:26.331Z,3.60
2022-10-11T00:53:55.022Z,3.30
2022-10-11T00:56:27.288Z,3.43
2022-10-11T00:58:58.797Z,3.60
2022-10-11T01:01:27.000Z,3.70
2022-10-11T01:03:55.239Z,4.00
2022-10-11T01:06:23.253Z,4.00
2022-10-11T01:08:53.183Z,3.60
2022-10-11T01:11:24.509Z,4.00
2022-10-11T01:14:08.711Z,3.70
2022-10-11T01:16:46.256Z,3.30
2022-10-11T01:19:33.698Z,3.70
2022-10-11T01:22:20.489Z,3.67
2022-10-11T01:25:08.872Z,3.70
2022-10-11T01:27:45.514Z,3.40
2022-10-11T01:30:24.372Z,3.37
2022-10-11T01:33:01.812Z,3.87
2022-10-11T01:35:33.571Z,3.57
2022-10-11T01:38:07.971Z,3.37
2022-10-11T01:40:41.258Z,3.67
2022-10-11T01:43:10.893Z,3.23
2022-10-11T01:45:41.483Z,3.37
2022-10-11T01:48:11.324Z,3.37
2022-10-11T01:50:45.307Z,3.30
2022-10-11T01:53:29.765Z,3.50
2022-10-11T01:56:02.718Z,3.23
2022-10-11T01:58:43.477Z,3.40
2022-10-11T02:01:23.510Z,3.50
2022-10-11T02:04:02.310Z,3.40
2022-10-11T02:06:37.327Z,3.10
2022-10-11T02:09:14.901Z,3.23
2022-10-11T02:11:43.018Z,2.80
2022-10-11T02:14:13.833Z,3.20
2022-10-11T02:16:47.335Z,3.30
2022-10-11T02:19:19.628Z,3.03
2022-10-11T02:21:54.308Z,3.40
2022-10-11T02:24:27.255Z,3.03
2022-10-11T02:26:58.707Z,3.63
2022-10-11T02:29:30.488Z,2.83
2022-10-11T02:32:02.011Z,3.10
2022-10-11T02:34:34.595Z,3.43
2022-10-11T02:37:07.016Z,3.33
2022-10-11T02:39:41.853Z,3.30
2022-10-11T02:42:15.071Z,3.50
2022-10-11T02:44:48.241Z,3.27
2022-10-11T02:47:17.856Z,2.80
2022-10-11T02:49:46.212Z,2.77
2022-10-11T02:52:15.563Z,3.20
2022-10-11T02:54:43.350Z,3.20
2022-10-11T02:57:11.078Z,3.10
2022-10-11T02:59:38.856Z,3.53
2022-10-11T03:02:06.780Z,3.30
2022-10-11T03:04:36.730Z,3.40
2022-10-11T03:07:04.845Z,3.60
2022-10-11T03:09:32.688Z,3.27
2022-10-11T03:12:00.528Z,3.40
2022-10-11T03:14:28.351Z,3.53
2022-10-11T03:17:00.764Z,3.10
2022-10-11T03:19:41.360Z,3.70
2022-10-11T03:22:09.166Z,3.20
2022-10-11T03:24:36.939Z,3.13
2022-10-11T03:27:04.949Z,3.70
2022-10-11T03:29:32.729Z,3.03
2022-10-11T03:32:00.595Z,3.20
2022-10-11T03:34:28.420Z,3.23
2022-10-11T03:36:57.577Z,3.30
2022-10-11T03:39:25.350Z,3.30
2022-10-11T03:41:53.215Z,3.13
2022-10-11T03:44:21.085Z,3.00
2022-10-11T03:46:48.826Z,3.30
2022-10-11T03:49:16.622Z,3.07
2022-10-11T03:51:44.500Z,3.23
2022-10-11T03:54:13.749Z,3.30
2022-10-11T03:56:41.641Z,3.33
2022-10-11T03:59:10.735Z,3.27
2022-10-11T04:01:38.866Z,2.83
2022-10-11T04:04:07.390Z,3.20
2022-10-11T04:06:35.178Z,3.43
2022-10-11T04:09:03.552Z,3.00
2022-10-11T04:11:32.700Z,3.47
2022-10-11T04:14:00.630Z,3.27
2022-10-11T04:16:28.455Z,3.10
2022-10-11T04:18:56.208Z,3.03
2022-10-11T04:21:24.094Z,3.60
2022-10-11T04:23:51.921Z,3.73
2022-10-11T04:26:19.671Z,3.40
2022-10-11T04:28:48.911Z,3.40
2022-10-11T04:31:16.749Z,3.80
2022-10-11T04:33:44.547Z,3.60
2022-10-11T04:36:12.307Z,3.73
2022-10-11T04:38:40.091Z,3.93
2022-10-11T04:41:08.933Z,3.83
2022-10-11T04:43:37.205Z,3.97
2022-10-11T04:46:07.400Z,4.37
2022-10-11T04:48:35.791Z,4.17
2022-10-11T04:51:03.599Z,3.50
2022-10-11T04:53:31.477Z,3.80
2022-10-11T04:56:01.171Z,9.80
2022-10-11T04:58:29.589Z,4.33
2022-10-11T05:00:57.622Z,3.90
2022-10-11T05:03:27.721Z,4.17
2022-10-11T05:05:55.592Z,4.20
2022-10-11T05:08:24.345Z,4.60
2022-10-11T05:10:58.734Z,3.87
2022-10-11T05:13:27.032Z,4.07
2022-10-11T05:15:55.069Z,3.70
2022-10-11T05:18:22.995Z,3.50
2022-10-11T05:20:59.759Z,3.73
2022-10-11T05:23:27.720Z,3.83
2022-10-11T05:25:56.398Z,4.10
2022-10-11T05:28:24.334Z,4.40
2022-10-11T05:30:52.222Z,4.20
2022-10-11T05:33:20.227Z,3.70
2022-10-11T05:35:48.019Z,3.63
2022-10-11T05:38:17.220Z,3.30
2022-10-11T05:40:45.055Z,3.40
2022-10-11T05:43:13.201Z,3.40
2022-10-11T05:45:42.637Z,3.30
2022-10-11T05:48:11.259Z,3.47
2022-10-11T05:50:39.574Z,3.60
2022-10-11T05:53:07.833Z,3.80
2022-10-11T05:55:38.510Z,3.73
2022-10-11T05:58:07.179Z,3.70
2022-10-11T06:00:37.933Z,3.27
2022-10-11T06:03:06.824Z,2.93
2022-10-11T06:05:36.075Z,2.80
2022-10-11T06:08:03.923Z,3.23
2022-10-11T06:10:31.658Z,3.13
2022-10-11T06:13:00.839Z,3.07
2022-10-11T06:15:28.986Z,3.50
2022-10-11T06:17:58.042Z,4.23
2022-10-11T06:20:25.909Z,3.73
2022-10-11T06:22:53.775Z,3.60
2022-10-11T06:25:21.551Z,3.60
2022-10-11T06:27:49.327Z,3.67
2022-10-11T06:30:26.500Z,3.70
2022-10-11T06:32:55.628Z,3.67
2022-10-11T06:35:23.348Z,4.00
2022-10-11T06:37:51.384Z,4.00
2022-10-11T06:40:19.111Z,3.87
2022-10-11T06:42:49.147Z,3.73
2022-10-11T06:45:16.950Z,3.80
2022-10-11T06:47:44.686Z,3.80
2022-10-11T06:50:14.359Z,4.23
2022-10-11T06:52:42.112Z,3.60
2022-10-11T06:55:10.212Z,3.70
2022-10-11T06:57:38.032Z,3.73
2022-10-11T07:00:11.689Z,3.43
2022-10-11T07:02:40.280Z,3.80
2022-10-11T07:05:09.212Z,3.80
2022-10-11T07:07:38.343Z,3.50
2022-10-11T07:10:07.014Z,3.53
2022-10-11T07:12:34.749Z,3.43
2022-10-11T07:15:02.494Z,2.93
2022-10-11T07:17:30.282Z,3.50
2022-10-11T07:19:58.118Z,3.20
2022-10-11T07:22:25.876Z,3.10
2022-10-11T07:24:55.010Z,2.80
2022-10-11T07:27:23.930Z,2.70
2022-10-11T07:29:51.766Z,3.17
2022-10-11T07:32:19.476Z,3.30
2022-10-11T07:34:47.334Z,2.57
2022-10-11T07:37:15.044Z,3.20
2022-10-11T07:39:42.891Z,3.37
2022-10-11T07:42:12.014Z,3.37
2022-10-11T07:44:39.791Z,3.03
2022-10-11T07:47:11.103Z,3.40
2022-10-11T07:49:39.298Z,3.37
2022-10-11T07:52:07.143Z,3.10
2022-10-11T07:54:34.905Z,3.13
2022-10-11T07:57:02.652Z,3.20
2022-10-11T07:59:31.791Z,3.30
2022-10-11T08:01:59.702Z,3.40
2022-10-11T08:04:27.701Z,3.30
2022-10-11T08:06:55.498Z,3.20
2022-10-11T08:09:23.275Z,3.47
2022-10-11T08:11:51.017Z,2.90
2022-10-11T08:14:19.030Z,3.63
2022-10-11T08:16:48.581Z,2.90
2022-10-11T08:19:18.539Z,4.67
2022-10-11T08:21:46.470Z,5.50
2022-10-11T08:24:14.956Z,3.43
2022-10-11T08:26:42.975Z,3.83
2022-10-11T08:29:11.540Z,4.00
2022-10-11T08:31:39.290Z,4.37
2022-10-11T08:34:08.508Z,4.10
2022-10-11T08:36:37.459Z,4.00
2022-10-11T08:39:05.718Z,4.00
2022-10-11T08:41:41.924Z,4.00
2022-10-11T08:44:23.794Z,4.30
2022-10-11T08:47:00.456Z,4.00
2022-10-11T08:49:33.348Z,4.33
2022-10-11T08:52:04.653Z,3.60
2022-10-11T08:54:39.858Z,4.00
2022-10-11T08:57:10.932Z,4.27
2022-10-11T08:59:43.991Z,4.83
2022-10-11T09:02:38.985Z,5.60
2022-10-11T09:05:18.708Z,4.33
2022-10-11T09:07:55.301Z,5.20
2022-10-11T09:10:46.884Z,4.50
2022-10-11T09:13:43.717Z,6.30
2022-10-11T09:16:22.265Z,4.27
2022-10-11T09:19:11.233Z,3.80
2022-10-11T09:21:47.582Z,3.50
2022-10-11T09:24:31.783Z,3.73
2022-10-11T09:27:06.482Z,4.00
2022-10-11T09:29:48.696Z,4.23
2022-10-11T09:32:18.144Z,4.00
2022-10-11T09:34:45.962Z,4.33
2022-10-11T09:37:23.388Z,3.93
2022-10-11T09:39:56.647Z,4.30
2022-10-11T09:42:24.657Z,3.93
2022-10-11T09:44:53.156Z,4.30
2022-10-11T09:47:25.049Z,4.67
2022-10-11T09:49:57.661Z,4.43
2022-10-11T09:52:27.157Z,4.10
2022-10-11T09:54:57.082Z,4.80
2022-10-11T09:57:27.370Z,4.70
2022-10-11T10:00:03.650Z,4.73
2022-10-11T10:02:44.018Z,4.97
2022-10-11T10:05:18.964Z,5.30
2022-10-11T10:08:05.234Z,5.53
2022-10-11T10:10:40.033Z,5.10
2022-10-11T10:13:21.016Z,4.93
2022-10-11T10:15:51.822Z,5.30
2022-10-11T10:18:23.698Z,5.47
2022-10-11T10:20:56.669Z,5.80
2022-10-11T10:23:28.916Z,5.13
2022-10-11T10:26:12.729Z,5.13
2022-10-11T10:28:54.924Z,5.43
2022-10-11T10:31:24.580Z,6.07
2022-10-11T10:33:55.334Z,5.50
2022-10-11T10:36:27.809Z,4.73
2022-10-11T10:39:03.623Z,5.43
2022-10-11T10:41:31.403Z,4.70
2022-10-11T10:44:01.000Z,5.00
2022-10-11T10:46:40.140Z,4.50
2022-10-11T10:52:25.811Z,4.80
2022-10-11T10:55:00.483Z,4.53
2022-10-11T10:57:37.424Z,4.60
2022-10-11T11:00:14.523Z,4.30
2022-10-11T11:02:50.632Z,4.13
2022-10-11T11:05:27.031Z,3.93
2022-10-11T11:08:04.089Z,4.07
2022-10-11T11:10:37.327Z,4.13
2022-10-11T11:13:20.248Z,4.33
2022-10-11T11:15:55.155Z,4.27
2022-10-11T11:18:29.752Z,4.60
2022-10-11T11:21:14.555Z,4.37
2022-10-11T11:23:52.464Z,4.03
2022-10-11T11:26:30.200Z,3.87
2022-10-11T11:29:08.181Z,4.10
2022-10-11T11:31:50.313Z,4.20
2022-10-11T11:34:23.100Z,3.70
2022-10-11T11:36:55.231Z,3.97
2022-10-11T11:39:25.857Z,4.13
2022-10-11T11:41:59.487Z,3.97
2022-10-11T11:44:32.831Z,5.97
2022-10-11T11:47:08.115Z,3.57
2022-10-11T11:49:39.242Z,3.77
2022-10-11T11:52:13.618Z,3.70
2022-10-11T11:54:49.502Z,4.20
2022-10-11T11:57:28.472Z,3.97
2022-10-11T12:00:04.187Z,3.87
2022-10-11T12:02:45.460Z,4.37
2022-10-11T12:05:15.468Z,3.97
2022-10-11T12:07:53.881Z,4.17
2022-10-11T12:10:35.845Z,3.87
2022-10-11T12:13:32.662Z,4.73
2022-10-11T12:16:12.612Z,4.60
2022-10-11T12:19:00.727Z,4.23
2022-10-11T12:21:33.119Z,4.03
2022-10-11T12:24:10.153Z,4.30
2022-10-11T12:26:40.870Z,3.90
2022-10-11T12:29:46.165Z,4.00
2022-10-11T12:32:53.454Z,3.83
2022-10-11T12:36:08.251Z,4.80
2022-10-11T12:38:39.678Z,4.40
2022-10-11T12:41:42.343Z,3.90
2022-10-11T12:44:22.039Z,4.03
2022-10-11T12:47:19.354Z,4.00
2022-10-11T12:50:12.960Z,4.07
2022-10-11T12:52:55.476Z,3.70
2022-10-11T12:55:48.973Z,3.90
2022-10-11T12:58:26.361Z,3.60
2022-10-11T13:01:20.135Z,3.40
2022-10-11T13:04:00.210Z,3.40
2022-10-11T13:06:34.787Z,4.20
2022-10-11T13:09:08.200Z,4.30
2022-10-11T13:11:44.620Z,3.87
2022-10-11T13:14:17.933Z,3.97
2022-10-11T13:17:00.290Z,3.67
2022-10-11T13:19:30.404Z,3.47
2022-10-11T13:22:03.127Z,4.03
2022-10-11T13:24:39.315Z,3.83
2022-10-11T13:27:08.519Z,3.67
2022-10-11T13:29:39.255Z,3.83
2022-10-11T13:32:11.742Z,4.33
2022-10-11T13:34:43.018Z,4.00
2022-10-11T13:37:18.666Z,4.10
2022-10-11T13:39:48.844Z,3.87
2022-10-11T13:42:18.732Z,4.43
2022-10-11T13:44:48.048Z,4.07
2022-10-11T13:47:22.329Z,6.03
2022-10-11T13:50:09.070Z,4.43
2022-10-11T13:52:37.061Z,3.67
2022-10-11T13:55:14.690Z,3.77
2022-10-11T13:57:45.191Z,4.23
2022-10-11T14:00:26.707Z,4.00
2022-10-11T14:02:59.457Z,3.37
2022-10-11T14:05:33.523Z,3.70
2022-10-11T14:08:03.779Z,4.60
2022-10-11T14:10:32.268Z,4.13
2022-10-11T14:13:23.252Z,3.93
2022-10-11T14:16:01.876Z,3.83
2022-10-11T14:18:41.987Z,4.00
2022-10-11T14:21:28.470Z,3.90
2022-10-11T14:23:58.288Z,4.10
2022-10-11T14:26:27.824Z,4.07
2022-10-11T14:28:59.377Z,4.43
2022-10-11T14:31:30.598Z,4.00
2022-10-11T14:33:59.597Z,4.07
2022-10-11T14:36:28.799Z,3.97
2022-10-11T14:38:56.617Z,4.00
2022-10-11T14:41:24.562Z,4.87
2022-10-11T14:43:56.274Z,4.70
2022-10-11T14:46:26.202Z,4.60
2022-10-11T14:48:56.345Z,5.13
2022-10-11T14:51:28.877Z,4.77
2022-10-11T14:53:58.008Z,5.30
2022-10-11T14:56:25.848Z,5.13
2022-10-11T14:58:53.652Z,5.13
2022-10-11T15:01:21.554Z,4.90
2022-10-11T15:03:49.573Z,5.30
2022-10-11T15:06:20.327Z,5.47
2022-10-11T15:08:48.190Z,4.73
2022-10-11T15:11:19.224Z,5.03
2022-10-11T15:13:47.796Z,8.60
2022-10-11T15:16:17.876Z,4.63
2022-10-11T15:18:50.885Z,5.17
2022-10-11T15:21:20.982Z,4.70
2022-10-11T15:23:50.277Z,5.37
2022-10-11T15:26:22.628Z,5.40
2022-10-11T15:28:51.384Z,5.03
2022-10-11T15:31:19.319Z,5.03
2022-10-11T15:33:47.509Z,4.90
2022-10-11T15:36:17.505Z,5.20
2022-10-11T15:38:46.214Z,5.33
2022-10-11T15:41:15.678Z,4.80
2022-10-11T15:43:46.738Z,5.60
2022-10-11T15:46:18.505Z,5.13
2022-10-11T15:48:47.384Z,5.10
2022-10-11T15:51:16.986Z,5.67
2022-10-11T15:53:45.246Z,5.57
2022-10-11T15:56:18.605Z,5.10
2022-10-11T15:58:47.984Z,5.37
2022-10-11T16:01:18.292Z,5.30
2022-10-11T16:03:47.251Z,5.63
2022-10-11T16:06:15.251Z,5.80
2022-10-11T16:08:43.117Z,6.43
2022-10-11T16:11:12.387Z,5.90
2022-10-11T16:13:40.438Z,5.63
2022-10-11T16:16:12.059Z,5.57
2022-10-11T16:18:40.196Z,5.10
2022-10-11T16:21:10.301Z,5.40
2022-10-11T16:23:38.861Z,5.27
2022-10-11T16:26:09.398Z,5.83
2022-10-11T16:28:37.782Z,5.80
2022-10-11T16:31:09.800Z,5.27
2022-10-11T16:33:45.391Z,5.50
2022-10-11T16:36:36.364Z,4.87
2022-10-11T16:39:07.696Z,5.37
2022-10-11T16:41:35.583Z,5.33
2022-10-11T16:44:04.654Z,5.67
2022-10-11T16:46:34.905Z,5.20
2022-10-11T16:49:03.146Z,5.07
2022-10-11T16:51:31.136Z,6.37
2022-10-11T16:53:58.911Z,6.20
2022-10-11T16:56:27.991Z,5.23
2022-10-11T16:58:56.407Z,5.63
2022-10-11T17:01:24.393Z,4.90
2022-10-11T17:03:53.734Z,5.67
2022-10-11T17:06:21.817Z,5.33
2022-10-11T17:08:49.968Z,5.80
2022-10-11T17:11:18.462Z,5.60
2022-10-11T17:13:46.677Z,5.87
2022-10-11T17:16:14.815Z,5.60
2022-10-11T17:18:42.748Z,5.40
2022-10-11T17:21:13.514Z,5.23
2022-10-11T17:23:42.967Z,5.27
2022-10-11T17:26:18.801Z,5.07
2022-10-11T17:28:47.327Z,5.73
2022-10-11T17:31:15.355Z,5.60
2022-10-11T17:33:43.101Z,5.80
2022-10-11T17:36:18.098Z,5.60
2022-10-11T17:38:46.214Z,5.47
2022-10-11T17:41:14.813Z,5.60
2022-10-11T17:43:42.594Z,5.60
2022-10-11T17:46:12.981Z,6.13
2022-10-11T17:48:41.522Z,6.67
2022-10-11T17:51:11.398Z,6.97
2022-10-11T17:53:41.145Z,8.63
2022-10-11T17:56:11.357Z,6.73
2022-10-11T17:58:40.023Z,6.47
2022-10-11T18:01:10.155Z,7.47
2022-10-11T18:03:38.602Z,7.23
2022-10-11T18:06:07.712Z,8.33
2022-10-11T18:08:40.426Z,8.10
2022-10-11T18:11:13.012Z,7.57
2022-10-11T18:13:43.164Z,7.60
2022-10-11T18:16:11.801Z,7.27
2022-10-11T18:18:40.470Z,7.80
2022-10-11T18:21:08.303Z,7.90
2022-10-11T18:23:38.161Z,7.80
2022-10-11T18:26:12.167Z,8.07
2022-10-11T18:28:41.153Z,9.33
2022-10-11T18:31:13.031Z,9.70
2022-10-11T18:33:42.379Z,10.07
2022-10-11T18:36:13.396Z,12.67
2022-10-11T18:38:46.274Z,10.23
2022-10-11T18:41:18.094Z,11.80
2022-10-11T18:43:50.065Z,11.13
2022-10-11T18:46:18.152Z,12.00
2022-10-11T18:48:48.715Z,11.07
2022-10-11T18:51:18.416Z,11.60
2022-10-11T18:53:48.161Z,11.23
2022-10-11T18:56:20.905Z,9.63
2022-10-11T18:58:50.323Z,11.07
2022-10-11T19:01:20.292Z,11.13
2022-10-11T19:03:50.315Z,12.40
2022-10-11T19:06:21.336Z,12.27
2022-10-11T19:08:51.465Z,11.80
2022-10-11T19:11:22.152Z,12.20
2022-10-11T19:13:56.177Z,12.37
2022-10-11T19:16:24.392Z,11.83
2022-10-11T19:18:53.566Z,12.17
2022-10-11T19:21:21.674Z,11.73
2022-10-11T19:23:50.181Z,10.90
2022-10-11T19:26:21.382Z,12.07
2022-10-11T19:28:54.726Z,12.77
2022-10-11T19:31:22.605Z,12.40
2022-10-11T19:33:50.544Z,11.90
2022-10-11T19:36:19.444Z,12.70
2022-10-11T19:38:49.247Z,12.60
2022-10-11T19:41:21.272Z,12.10
2022-10-11T19:43:51.299Z,12.60
2022-10-11T19:49:11.907Z,11.77
2022-10-11T19:51:39.916Z,12.70
2022-10-11T19:54:09.349Z,11.67
2022-10-11T19:56:39.227Z,12.10
2022-10-11T19:59:09.432Z,11.70
2022-10-11T20:01:38.315Z,25.77
2022-10-11T20:04:07.885Z,12.63
2022-10-11T20:06:38.845Z,14.83
2022-10-11T20:11:56.605Z,12.87
2022-10-11T20:14:24.809Z,12.30
2022-10-11T20:16:52.957Z,12.20
2022-10-11T20:19:26.175Z,13.23
2022-10-11T20:21:55.749Z,13.50
2022-10-11T20:24:23.663Z,13.37
2022-10-11T20:26:51.514Z,12.40
2022-10-11T20:29:20.671Z,13.30
2022-10-11T20:31:48.560Z,13.03
2022-10-11T20:34:16.388Z,12.90
2022-10-11T20:36:48.946Z,12.83
2022-10-11T20:39:17.861Z,13.03
2022-10-11T20:41:46.194Z,12.23
2022-10-11T20:44:16.131Z,13.10
2022-10-11T20:46:45.339Z,13.03
2022-10-11T20:49:13.392Z,13.10
2022-10-11T20:51:42.760Z,13.80
2022-10-11T20:54:11.379Z,13.33
2022-10-11T20:56:40.492Z,13.77
2022-10-11T20:59:09.270Z,13.40
2022-10-11T21:01:39.542Z,13.83
2022-10-11T21:04:15.482Z,14.20
2022-10-11T21:06:43.245Z,13.80
2022-10-11T21:09:14.059Z,13.00
2022-10-11T21:11:44.320Z,13.37
2022-10-11T21:14:12.112Z,12.50
2022-10-11T21:16:40.180Z,11.27
2022-10-11T21:19:14.452Z,10.87
2022-10-11T21:21:53.531Z,12.60
2022-10-11T21:24:24.951Z,11.67
2022-10-11T21:27:00.326Z,14.07
2022-10-11T21:29:28.462Z,11.60
2022-10-11T21:31:56.288Z,12.47
2022-10-11T21:34:25.556Z,11.27
2022-10-11T21:36:53.410Z,11.67
2022-10-11T21:39:21.432Z,12.83
2022-10-11T21:41:49.314Z,11.87
2022-10-11T21:44:17.258Z,11.13
2022-10-11T21:47:06.062Z,12.93
2022-10-11T21:49:34.303Z,13.27
2022-10-11T21:52:02.439Z,13.67
2022-10-11T21:54:30.876Z,15.00
2022-10-11T21:56:58.635Z,15.10
2022-10-11T21:59:26.879Z,13.97
2022-10-11T22:01:59.332Z,14.17
2022-10-11T22:04:29.458Z,13.83
2022-10-11T22:06:58.635Z,13.63
2022-10-11T22:09:27.708Z,13.83
2022-10-11T22:11:55.478Z,13.73
2022-10-11T22:14:23.371Z,15.37
2022-10-11T22:16:51.114Z,14.40
2022-10-11T22:19:18.835Z,14.33
2022-10-11T22:21:46.604Z,14.13
2022-10-11T22:24:16.541Z,15.20
2022-10-11T22:26:44.342Z,14.50
2022-10-11T22:29:12.146Z,14.77
2022-10-11T22:31:39.990Z,14.60
2022-10-11T22:34:07.787Z,14.53
2022-10-11T22:36:35.639Z,15.00
2022-10-11T22:39:07.676Z,15.40
2022-10-11T22:41:37.201Z,13.97
2022-10-11T22:44:05.637Z,11.43
2022-10-11T22:46:33.704Z,10.40
2022-10-11T22:49:01.485Z,11.40
2022-10-11T22:51:29.301Z,10.13
2022-10-11T22:53:57.076Z,12.40
2022-10-11T22:56:24.884Z,10.60
2022-10-11T22:58:53.987Z,11.73
2022-10-11T23:01:21.785Z,12.87
2022-10-11T23:03:50.626Z,13.43
2022-10-11T23:06:18.839Z,12.57
2022-10-11T23:08:46.633Z,11.83
2022-10-11T23:11:14.444Z,12.27
2022-10-11T23:13:42.177Z,11.23
2022-10-11T23:16:13.052Z,11.67
2022-10-11T23:18:41.196Z,10.97
2022-10-11T23:21:09.329Z,12.33
2022-10-11T23:23:39.171Z,11.73
2022-10-11T23:26:08.833Z,11.17
2022-10-11T23:28:36.749Z,11.57
2022-10-11T23:31:09.289Z,11.80
2022-10-11T23:33:38.658Z,11.77
2022-10-11T23:36:07.527Z,13.03
2022-10-11T23:38:35.288Z,11.97
2022-10-11T23:41:03.263Z,12.07
2022-10-11T23:43:31.049Z,11.17
2022-10-11T23:45:58.796Z,10.87
2022-10-11T23:48:26.522Z,12.47
2022-10-11T23:50:55.651Z,12.50
2022-10-11T23:53:23.527Z,13.97
2022-10-11T23:55:51.886Z,14.80
2022-10-11T23:58:19.680Z,13.20
